Time;durP1;ratioP1;P1;durP2;ratioP2;P2;SDS_P1;SDS_P2;PMS_P1;PMS_P2;Temp;Humidity;BMP_temperature;BMP_pressure;BME280_temperature;BME280_humidity;BME280_pressure;Samples;Min_cycle;Max_cycle;Signal;HPM_P1;HPM_P2
2021/04/18 00:00:44;;;;;;;0.45;0.28;;;5.40;65.60;;;;;;5054793;28;20041;-76
2021/04/18 00:03:10;;;;;;;0.43;0.32;;;5.30;65.70;;;;;;5057768;28;20036;-77
2021/04/18 00:05:37;;;;;;;0.20;0.20;;;5.50;65.80;;;;;;5055840;28;20025;-77
2021/04/18 00:08:03;;;;;;;0.30;0.30;;;5.30;65.80;;;;;;5060365;28;20037;-78
2021/04/18 00:10:34;;;;;;;0.10;0.10;;;5.30;65.90;;;;;;5070546;28;20025;-77
2021/04/18 00:13:01;;;;;;;0.40;0.30;;;5.30;66.10;;;;;;5065815;28;20017;-77
2021/04/18 00:15:27;;;;;;;1.02;0.30;;;5.20;66.10;;;;;;5064664;28;20057;-77
2021/04/18 00:17:54;;;;;;;0.32;0.20;;;5.20;66.20;;;;;;5070359;28;20059;-77
2021/04/18 00:20:20;;;;;;;0.47;0.30;;;5.20;66.30;;;;;;5061742;28;20548;-76
2021/04/18 00:22:47;;;;;;;0.40;0.40;;;5.10;66.30;;;;;;5039442;28;20493;-76
2021/04/18 00:25:15;;;;;;;1.08;0.20;;;5.10;66.40;;;;;;5057121;28;20037;-77
2021/04/18 00:27:43;;;;;;;0.30;0.30;;;5.10;66.40;;;;;;5039719;28;20479;-78
2021/04/18 00:30:11;;;;;;;0.20;0.20;;;5.10;66.50;;;;;;5063076;28;20032;-78
2021/04/18 00:32:38;;;;;;;0.20;0.20;;;5.10;66.50;;;;;;5054112;28;20037;-77
2021/04/18 00:35:25;;;;;;;0.35;0.25;;;5.10;66.60;;;;;;5062048;28;20441;-80
2021/04/18 00:37:52;;;;;;;0.20;0.20;;;5.10;66.70;;;;;;5024080;28;20061;-75
2021/04/18 00:40:20;;;;;;;0.20;0.20;;;5.00;66.70;;;;;;5000568;28;20116;-78
2021/04/18 00:42:46;;;;;;;0.15;0.15;;;5.00;66.70;;;;;;5002816;28;20094;-78
2021/04/18 00:45:17;;;;;;;0.47;0.30;;;5.00;66.80;;;;;;5017989;28;20115;-79
2021/04/18 00:47:46;;;;;;;0.10;0.10;;;5.00;66.90;;;;;;5014697;28;20418;-76
2021/04/18 00:50:16;;;;;;;0.30;0.20;;;5.00;66.90;;;;;;5014790;28;20149;-77
2021/04/18 00:52:43;;;;;;;0.17;0.17;;;4.90;66.90;;;;;;4998414;28;20154;-78
2021/04/18 00:55:10;;;;;;;0.10;0.10;;;4.80;66.90;;;;;;5003638;28;20522;-78
2021/04/18 00:57:36;;;;;;;0.63;0.38;;;5.00;67.20;;;;;;5004088;28;20450;-78
2021/04/18 01:00:06;;;;;;;0.25;0.25;;;4.90;67.10;;;;;;4983704;28;20038;-79
2021/04/18 01:02:32;;;;;;;0.35;0.30;;;4.80;67.10;;;;;;5019064;28;20057;-80
2021/04/18 01:04:58;;;;;;;0.30;0.30;;;4.80;67.30;;;;;;5028915;28;20034;-80
2021/04/18 01:07:26;;;;;;;0.55;0.35;;;4.80;67.40;;;;;;4996726;28;20057;-80
2021/04/18 01:09:53;;;;;;;0.85;0.28;;;4.70;67.50;;;;;;5034959;28;20038;-75
2021/04/18 01:12:20;;;;;;;0.22;0.20;;;4.70;67.70;;;;;;5030869;28;20132;-76
2021/04/18 01:14:46;;;;;;;3.05;0.20;;;4.70;67.70;;;;;;5031330;28;20506;-76
2021/04/18 01:17:13;;;;;;;0.25;0.20;;;4.70;67.80;;;;;;5014242;28;20045;-76
2021/04/18 01:19:39;;;;;;;0.28;0.20;;;4.60;67.80;;;;;;5031044;28;20443;-76
2021/04/18 01:22:05;;;;;;;0.25;0.20;;;4.60;67.90;;;;;;5030613;28;20044;-76
2021/04/18 01:24:32;;;;;;;0.80;0.30;;;4.60;67.90;;;;;;5031134;28;20045;-76
2021/04/18 01:26:58;;;;;;;0.75;0.40;;;4.60;68.10;;;;;;5030725;28;20538;-76
2021/04/18 01:29:25;;;;;;;0.47;0.32;;;4.50;68.10;;;;;;5048418;28;20124;-75
2021/04/18 01:31:51;;;;;;;0.40;0.30;;;4.50;68.20;;;;;;5051664;28;20433;-76
2021/04/18 01:34:18;;;;;;;0.52;0.30;;;4.50;68.30;;;;;;5051876;28;20037;-76
2021/04/18 01:36:45;;;;;;;0.22;0.20;;;4.40;68.30;;;;;;5051355;28;20095;-76
2021/04/18 01:39:13;;;;;;;0.80;0.30;;;4.40;68.40;;;;;;5051219;28;20462;-76
2021/04/18 01:41:40;;;;;;;0.75;0.20;;;4.30;68.40;;;;;;5047596;28;20140;-76
2021/04/18 01:44:12;;;;;;;0.35;0.20;;;4.40;68.50;;;;;;5051136;28;20044;-76
2021/04/18 01:46:40;;;;;;;0.80;0.52;;;4.40;68.60;;;;;;5034997;28;20086;-76
2021/04/18 01:49:06;;;;;;;0.20;0.20;;;4.40;68.60;;;;;;5034433;28;20493;-75
2021/04/18 01:51:33;;;;;;;0.57;0.20;;;4.30;68.70;;;;;;5034312;28;20041;-76
2021/04/18 01:54:00;;;;;;;0.10;0.10;;;4.20;68.70;;;;;;5034357;28;20037;-76
2021/04/18 01:56:28;;;;;;;0.30;0.30;;;4.30;68.90;;;;;;5034262;28;20122;-75
2021/04/18 01:58:55;;;;;;;0.32;0.22;;;4.30;69.00;;;;;;5034146;28;20191;-77
2021/04/18 02:01:22;;;;;;;2.05;0.28;;;4.20;69.00;;;;;;5051436;28;20106;-77
2021/04/18 02:03:48;;;;;;;0.20;0.20;;;4.20;69.10;;;;;;5035283;28;20445;-77
2021/04/18 02:06:14;;;;;;;0.68;0.30;;;4.20;69.10;;;;;;5049164;28;20033;-77
2021/04/18 02:08:41;;;;;;;0.20;0.20;;;4.20;69.20;;;;;;5045028;28;20171;-77
2021/04/18 02:11:07;;;;;;;0.80;0.40;;;4.20;69.30;;;;;;5034400;28;20041;-77
2021/04/18 02:13:33;;;;;;;0.57;0.30;;;4.10;70.00;;;;;;5051103;28;20429;-77
2021/04/18 02:15:59;;;;;;;0.30;0.20;;;4.00;69.40;;;;;;5051383;28;20122;-77
2021/04/18 02:18:26;;;;;;;0.52;0.30;;;4.10;69.40;;;;;;5050660;28;20037;-78
2021/04/18 02:20:53;;;;;;;0.98;0.30;;;4.10;69.50;;;;;;5033910;28;20037;-77
2021/04/18 02:23:19;;;;;;;1.00;0.22;;;3.90;69.40;;;;;;5050578;28;20029;-77
2021/04/18 02:25:45;;;;;;;0.32;0.30;;;4.00;69.60;;;;;;5050709;28;20029;-77
2021/04/18 02:28:11;;;;;;;0.13;0.13;;;4.00;69.70;;;;;;5033878;28;20037;-77
2021/04/18 02:30:38;;;;;;;0.30;0.30;;;4.00;69.70;;;;;;5050485;28;20033;-77
2021/04/18 02:33:05;;;;;;;0.20;0.20;;;4.00;69.80;;;;;;5051759;28;20047;-77
2021/04/18 02:35:31;;;;;;;0.20;0.20;;;4.00;69.80;;;;;;5033956;28;20029;-76
2021/04/18 02:37:58;;;;;;;0.52;0.30;;;4.00;69.90;;;;;;5051692;28;20041;-77
2021/04/18 02:40:24;;;;;;;0.30;0.30;;;3.90;69.90;;;;;;5033720;28;20143;-77
2021/04/18 02:42:50;;;;;;;0.20;0.20;;;3.90;70.00;;;;;;5033614;28;20122;-76
2021/04/18 02:45:16;;;;;;;0.20;0.20;;;3.90;70.10;;;;;;5033744;28;20052;-77
2021/04/18 02:47:42;;;;;;;0.20;0.20;;;3.90;70.10;;;;;;5033676;28;20106;-77
2021/04/18 02:50:09;;;;;;;0.30;0.20;;;3.90;70.20;;;;;;5033983;28;20037;-77
2021/04/18 02:52:36;;;;;;;0.20;0.20;;;3.90;70.20;;;;;;5050237;28;20487;-77
2021/04/18 02:55:03;;;;;;;0.20;0.20;;;3.80;70.20;;;;;;5050472;28;20383;-77
2021/04/18 02:57:29;;;;;;;0.10;0.10;;;3.80;70.30;;;;;;5050145;28;20441;-77
2021/04/18 02:59:55;;;;;;;0.40;0.30;;;3.80;70.40;;;;;;5051938;28;20091;-77
2021/04/18 03:02:22;;;;;;;0.60;0.32;;;3.80;70.50;;;;;;5051905;28;20025;-77
2021/04/18 03:04:48;;;;;;;0.65;0.35;;;3.70;70.60;;;;;;5050215;28;20029;-76
2021/04/18 03:07:14;;;;;;;0.80;0.35;;;3.70;70.60;;;;;;5050043;28;20090;-75
2021/04/18 03:09:41;;;;;;;0.63;0.30;;;3.70;70.70;;;;;;5036134;28;20043;-76
2021/04/18 03:12:07;;;;;;;0.35;0.30;;;3.70;70.80;;;;;;5053665;28;20386;-76
2021/04/18 03:14:34;;;;;;;0.60;0.20;;;3.50;70.80;;;;;;5036937;28;20048;-76
2021/04/18 03:17:00;;;;;;;0.63;0.30;;;3.60;70.90;;;;;;5053517;28;20857;-76
2021/04/18 03:19:26;;;;;;;2.15;0.30;;;3.60;71.00;;;;;;5053654;28;20045;-77
2021/04/18 03:21:52;;;;;;;0.60;0.38;;;3.60;71.10;;;;;;5036795;28;20028;-77
2021/04/18 03:24:18;;;;;;;0.20;0.20;;;3.60;71.10;;;;;;5049540;28;20479;-77
2021/04/18 03:26:44;;;;;;;0.20;0.20;;;3.60;71.10;;;;;;5036632;28;20503;-76
2021/04/18 03:29:10;;;;;;;0.50;0.32;;;3.60;71.10;;;;;;5054734;28;20112;-76
2021/04/18 03:31:37;;;;;;;0.50;0.20;;;3.60;71.20;;;;;;5054712;28;20179;-75
2021/04/18 03:34:03;;;;;;;0.20;0.20;;;3.50;71.30;;;;;;5053260;28;20045;-76
2021/04/18 03:36:29;;;;;;;0.28;0.25;;;3.50;71.30;;;;;;5036488;28;20049;-76
2021/04/18 03:38:55;;;;;;;0.50;0.35;;;3.50;71.40;;;;;;5054255;28;20494;-75
2021/04/18 03:41:25;;;;;;;0.20;0.20;;;3.40;71.40;;;;;;5052903;28;20055;-76
2021/04/18 03:43:51;;;;;;;0.40;0.30;;;3.50;71.50;;;;;;5055045;28;20029;-76
2021/04/18 03:46:17;;;;;;;0.60;0.40;;;3.40;71.40;;;;;;5053020;28;20028;-76
2021/04/18 03:48:43;;;;;;;0.45;0.30;;;3.40;71.50;;;;;;5036362;28;20120;-76
2021/04/18 03:51:09;;;;;;;1.13;0.40;;;3.40;71.50;;;;;;5036981;28;20071;-76
2021/04/18 03:53:36;;;;;;;0.93;0.38;;;3.40;71.60;;;;;;5053128;28;20060;-75
2021/04/18 03:56:04;;;;;;;0.30;0.30;;;3.40;71.70;;;;;;5036565;28;20434;-76
2021/04/18 03:58:30;;;;;;;0.45;0.35;;;3.40;72.30;;;;;;5036853;28;20152;-76
2021/04/18 04:00:56;;;;;;;0.88;0.30;;;3.40;71.70;;;;;;5052979;28;20441;-77
2021/04/18 04:03:23;;;;;;;0.52;0.30;;;3.40;71.70;;;;;;5019796;28;20037;-77
2021/04/18 04:05:49;;;;;;;0.43;0.30;;;3.40;71.80;;;;;;5054588;28;20039;-77
2021/04/18 04:08:15;;;;;;;1.02;0.30;;;3.40;71.90;;;;;;5053106;28;20076;-76
2021/04/18 04:10:42;;;;;;;0.93;0.40;;;3.40;71.90;;;;;;5052957;28;20040;-76
2021/04/18 04:13:08;;;;;;;0.30;0.30;;;3.30;71.90;;;;;;5035953;28;20458;-76
2021/04/18 04:15:34;;;;;;;0.60;0.40;;;3.40;72.00;;;;;;5036102;28;20127;-75
2021/04/18 04:18:00;;;;;;;1.33;0.70;;;3.40;72.00;;;;;;5053361;28;20049;-76
2021/04/18 04:20:27;;;;;;;0.20;0.20;;;3.30;72.00;;;;;;5034707;28;20033;-75
2021/04/18 04:22:53;;;;;;;1.40;0.60;;;3.30;72.10;;;;;;5035967;28;20032;-76
2021/04/18 04:25:20;;;;;;;0.28;0.22;;;3.30;72.20;;;;;;5036089;28;20445;-76
2021/04/18 04:27:46;;;;;;;0.32;0.30;;;3.40;72.20;;;;;;5035892;28;20044;-76
2021/04/18 04:30:13;;;;;;;0.20;0.20;;;3.40;72.30;;;;;;5053187;28;20501;-76
2021/04/18 04:32:40;;;;;;;0.77;0.50;;;3.40;72.30;;;;;;5052513;28;20037;-75
2021/04/18 04:35:07;;;;;;;0.20;0.20;;;3.40;72.30;;;;;;5036151;28;20041;-77
2021/04/18 04:37:33;;;;;;;1.58;0.40;;;3.40;72.40;;;;;;5052465;28;20036;-77
2021/04/18 04:39:59;;;;;;;0.22;0.22;;;3.40;72.40;;;;;;5052308;28;20029;-77
2021/04/18 04:42:26;;;;;;;0.30;0.30;;;3.30;72.40;;;;;;5052919;28;20025;-77
2021/04/18 04:44:52;;;;;;;0.47;0.45;;;3.40;72.50;;;;;;5052271;28;20128;-77
2021/04/18 04:47:18;;;;;;;0.17;0.17;;;3.30;72.50;;;;;;5052320;28;20104;-77
2021/04/18 04:49:44;;;;;;;0.52;0.25;;;3.30;72.60;;;;;;5052340;28;20508;-77
2021/04/18 04:52:10;;;;;;;1.05;0.45;;;3.30;73.30;;;;;;5035608;28;20048;-77
2021/04/18 04:54:38;;;;;;;0.30;0.20;;;3.30;72.70;;;;;;5035417;28;20107;-77
2021/04/18 04:57:05;;;;;;;0.28;0.28;;;3.40;72.80;;;;;;5052681;28;20037;-76
2021/04/18 04:59:31;;;;;;;0.30;0.30;;;3.30;72.80;;;;;;5052285;28;20447;-77
2021/04/18 05:01:58;;;;;;;0.30;0.25;;;3.30;72.90;;;;;;5019023;28;20090;-76
2021/04/18 05:04:24;;;;;;;0.38;0.20;;;3.30;72.90;;;;;;5053010;28;20049;-77
2021/04/18 05:06:52;;;;;;;0.40;0.40;;;3.40;72.90;;;;;;5051859;28;20516;-77
2021/04/18 05:09:18;;;;;;;0.10;0.10;;;3.30;72.80;;;;;;5053137;28;20037;-76
2021/04/18 05:11:44;;;;;;;0.28;0.20;;;3.40;72.80;;;;;;5047809;28;20045;-77
2021/04/18 05:14:10;;;;;;;0.35;0.20;;;3.40;72.80;;;;;;5052886;28;20153;-77
2021/04/18 05:16:37;;;;;;;0.32;0.15;;;3.40;72.70;;;;;;5051732;28;20037;-76
2021/04/18 05:19:03;;;;;;;0.30;0.20;;;3.50;72.80;;;;;;5052956;28;20490;-77
2021/04/18 05:21:29;;;;;;;0.25;0.17;;;3.40;72.70;;;;;;5035502;28;20041;-77
2021/04/18 05:23:56;;;;;;;0.73;0.40;;;3.50;73.60;;;;;;5051541;28;20045;-77
2021/04/18 05:26:22;;;;;;;0.13;0.13;;;3.40;72.90;;;;;;5035536;28;20044;-77
2021/04/18 05:28:49;;;;;;;0.25;0.20;;;3.40;72.90;;;;;;5051584;28;20039;-77
2021/04/18 05:31:16;;;;;;;0.45;0.30;;;3.50;73.00;;;;;;5050830;28;20394;-76
2021/04/18 05:33:41;;;;;;;0.28;0.20;;;3.50;73.00;;;;;;5053172;28;20037;-77
2021/04/18 05:36:08;;;;;;;0.20;0.20;;;3.50;72.90;;;;;;5051384;28;20464;-77
2021/04/18 05:38:34;;;;;;;0.30;0.25;;;3.60;72.90;;;;;;5035197;28;20048;-77
2021/04/18 05:41:00;;;;;;;0.20;0.20;;;3.60;72.90;;;;;;5034795;28;20068;-76
2021/04/18 05:43:27;;;;;;;0.10;0.10;;;3.60;72.90;;;;;;5035074;28;20033;-77
2021/04/18 05:45:53;;;;;;;0.32;0.20;;;3.60;72.80;;;;;;5052936;28;20167;-76
2021/04/18 05:48:20;;;;;;;0.25;0.20;;;3.60;72.80;;;;;;5034999;28;20406;-76
2021/04/18 05:50:50;;;;;;;0.10;0.10;;;3.70;72.80;;;;;;5034620;28;20037;-76
2021/04/18 05:53:16;;;;;;;0.20;0.20;;;3.70;72.70;;;;;;5034921;28;20041;-76
2021/04/18 05:55:43;;;;;;;0.20;0.20;;;3.80;72.80;;;;;;5034360;28;20043;-76
2021/04/18 05:58:11;;;;;;;0.20;0.20;;;3.90;72.70;;;;;;5034381;28;20056;-75
2021/04/18 06:00:38;;;;;;;0.13;0.13;;;3.90;72.60;;;;;;5035076;28;20079;-76
2021/04/18 06:03:04;;;;;;;0.40;0.25;;;4.00;72.60;;;;;;5047043;28;20036;-75
2021/04/18 06:05:31;;;;;;;0.65;0.28;;;4.10;72.50;;;;;;5050671;28;20037;-75
2021/04/18 06:07:58;;;;;;;0.57;0.20;;;4.20;72.50;;;;;;5034241;28;20044;-75
2021/04/18 06:10:24;;;;;;;0.35;0.20;;;4.20;72.40;;;;;;5052766;28;20071;-75
2021/04/18 06:12:52;;;;;;;0.75;0.52;;;4.30;72.40;;;;;;5052004;28;20053;-75
2021/04/18 06:15:18;;;;;;;0.20;0.17;;;4.40;72.30;;;;;;5034155;28;20076;-75
2021/04/18 06:17:44;;;;;;;0.63;0.45;;;4.50;72.20;;;;;;5052215;28;20044;-76
2021/04/18 06:20:11;;;;;;;0.43;0.38;;;4.60;72.80;;;;;;5034116;28;20025;-76
2021/04/18 06:22:37;;;;;;;0.50;0.30;;;4.70;72.10;;;;;;5050244;28;20108;-76
2021/04/18 06:25:05;;;;;;;0.38;0.38;;;4.90;72.10;;;;;;5033987;28;20566;-77
2021/04/18 06:27:32;;;;;;;0.60;0.40;;;5.00;72.00;;;;;;5050506;28;20041;-76
2021/04/18 06:29:58;;;;;;;1.55;0.60;;;5.00;71.90;;;;;;5050524;28;20037;-76
2021/04/18 06:32:25;;;;;;;0.88;0.47;;;5.10;71.80;;;;;;5050859;28;20071;-78
2021/04/18 06:34:51;;;;;;;1.02;0.50;;;5.20;71.70;;;;;;5050685;28;20116;-77
2021/04/18 06:37:17;;;;;;;0.77;0.50;;;5.30;71.70;;;;;;5050564;28;20122;-77
2021/04/18 06:39:44;;;;;;;1.85;0.60;;;5.50;71.60;;;;;;5051451;28;20494;-77
2021/04/18 06:42:14;;;;;;;1.02;0.50;;;5.60;71.50;;;;;;5050461;28;20037;-77
2021/04/18 06:44:41;;;;;;;1.60;0.55;;;5.70;71.50;;;;;;5033121;28;20390;-77
2021/04/18 06:47:09;;;;;;;0.65;0.40;;;5.80;71.40;;;;;;5050755;28;20049;-77
2021/04/18 06:49:38;;;;;;;0.32;0.32;;;6.00;71.30;;;;;;5050843;28;20049;-77
2021/04/18 06:52:06;;;;;;;0.20;0.20;;;6.10;71.20;;;;;;5034116;28;20933;-76
2021/04/18 06:54:33;;;;;;;0.52;0.40;;;6.20;71.20;;;;;;5033855;28;20048;-75
2021/04/18 06:57:00;;;;;;;0.52;0.45;;;6.30;71.10;;;;;;5050260;28;20040;-75
2021/04/18 06:59:27;;;;;;;0.30;0.30;;;6.50;71.00;;;;;;5015424;28;20041;-75
2021/04/18 07:01:53;;;;;;;0.52;0.50;;;6.60;70.90;;;;;;5050578;28;20055;-75
2021/04/18 07:04:22;;;;;;;0.52;0.43;;;6.70;70.70;;;;;;5033676;28;20029;-75
2021/04/18 07:06:51;;;;;;;1.85;0.73;;;6.80;70.70;;;;;;5051360;28;20544;-76
2021/04/18 07:09:22;;;;;;;1.48;0.70;;;6.80;70.80;;;;;;5050123;28;20045;-76
2021/04/18 07:11:57;;;;;;;0.98;0.60;;;6.80;70.90;;;;;;5050121;28;20084;-76
2021/04/18 07:14:37;;;;;;;0.82;0.50;;;7.00;71.00;;;;;;5050424;28;20059;-76
2021/04/18 07:17:07;;;;;;;1.13;0.70;;;7.10;70.90;;;;;;5049844;28;20037;-76
2021/04/18 07:19:36;;;;;;;1.23;0.60;;;7.30;70.80;;;;;;5049716;28;20052;-77
2021/04/18 07:22:03;;;;;;;0.75;0.65;;;7.40;70.60;;;;;;5051039;28;20060;-75
2021/04/18 07:24:30;;;;;;;1.25;0.88;;;7.30;70.70;;;;;;5033109;28;20053;-75
2021/04/18 07:27:01;;;;;;;1.30;0.80;;;7.20;71.00;;;;;;5049727;28;20080;-76
2021/04/18 07:29:30;;;;;;;0.80;0.70;;;7.30;71.30;;;;;;5031271;28;20045;-75
2021/04/18 07:31:59;;;;;;;1.05;0.57;;;7.40;71.30;;;;;;5050141;28;20068;-75
2021/04/18 07:34:34;;;;;;;0.47;0.43;;;7.40;71.30;;;;;;5049753;28;20041;-75
2021/04/18 07:37:10;;;;;;;0.40;0.40;;;7.50;71.10;;;;;;5034220;28;20037;-75
2021/04/18 07:39:56;;;;;;;0.65;0.60;;;7.70;71.10;;;;;;5049526;28;20072;-75
2021/04/18 07:42:34;;;;;;;2.00;0.60;;;7.80;71.00;;;;;;5050212;28;20104;-75
2021/04/18 07:45:06;;;;;;;0.73;0.55;;;8.00;70.80;;;;;;5045866;28;20060;-75
2021/04/18 07:47:36;;;;;;;0.50;0.50;;;8.20;70.60;;;;;;5049195;28;20033;-75
2021/04/18 07:50:06;;;;;;;1.00;0.50;;;8.40;70.40;;;;;;5049020;28;20037;-75
2021/04/18 07:52:34;;;;;;;1.30;0.57;;;8.60;70.40;;;;;;5046238;28;20037;-75
2021/04/18 07:55:01;;;;;;;0.77;0.70;;;8.60;70.10;;;;;;5051178;28;20073;-76
2021/04/18 07:57:28;;;;;;;1.08;0.73;;;8.80;70.00;;;;;;5054117;28;20040;-75
2021/04/18 07:59:54;;;;;;;1.30;0.70;;;9.00;70.00;;;;;;5052624;28;20041;-75
2021/04/18 08:02:22;;;;;;;0.85;0.60;;;9.10;69.50;;;;;;5036289;28;20039;-75
2021/04/18 08:04:53;;;;;;;0.88;0.68;;;9.30;69.30;;;;;;5052293;28;20025;-74
2021/04/18 08:07:20;;;;;;;0.88;0.52;;;9.40;69.30;;;;;;5037051;28;20041;-75
2021/04/18 08:09:46;;;;;;;0.90;0.50;;;9.50;69.20;;;;;;5053899;28;20041;-75
2021/04/18 08:12:16;;;;;;;1.02;0.80;;;9.60;69.10;;;;;;5052710;28;20048;-76
2021/04/18 08:14:47;;;;;;;0.65;0.50;;;10.00;68.90;;;;;;5052596;28;20553;-75
2021/04/18 08:17:16;;;;;;;3.30;0.40;;;10.10;68.40;;;;;;5052664;28;20132;-76
2021/04/18 08:20:00;;;;;;;1.10;0.50;;;10.40;68.30;;;;;;5053632;28;20049;-78
2021/04/18 08:23:02;;;;;;;0.90;0.60;;;10.60;68.00;;;;;;5034378;28;20509;-78
2021/04/18 08:25:29;;;;;;;1.27;0.60;;;10.80;67.70;;;;;;5054602;28;20037;-76
2021/04/18 08:28:05;;;;;;;1.27;0.70;;;11.10;67.50;;;;;;5055599;28;20047;-76
2021/04/18 08:31:04;;;;;;;0.45;0.30;;;11.20;67.20;;;;;;5043169;28;20089;-78
2021/04/18 08:33:43;;;;;;;1.58;0.60;;;11.40;66.80;;;;;;5034797;28;20045;-78
2021/04/18 08:36:16;;;;;;;0.43;0.40;;;11.60;66.80;;;;;;5049471;28;20049;-79
2021/04/18 08:38:46;;;;;;;1.27;0.60;;;11.70;66.50;;;;;;5035740;28;20402;-79
2021/04/18 08:41:15;;;;;;;1.88;0.60;;;11.70;66.50;;;;;;5052221;28;20028;-78
2021/04/18 08:43:43;;;;;;;0.82;0.55;;;11.70;66.50;;;;;;5035557;28;20045;-79
2021/04/18 08:46:10;;;;;;;0.77;0.50;;;11.80;66.70;;;;;;5035738;28;20037;-79
2021/04/18 08:48:37;;;;;;;1.02;0.68;;;11.90;66.70;;;;;;5033371;28;20212;-79
2021/04/18 08:51:05;;;;;;;0.70;0.60;;;11.80;66.40;;;;;;5035581;28;20041;-78
2021/04/18 08:54:00;;;;;;;0.55;0.45;;;11.90;66.50;;;;;;5035391;28;20041;-78
2021/04/18 08:56:48;;;;;;;0.40;0.40;;;12.10;66.60;;;;;;5049199;28;20509;-78
2021/04/18 08:59:15;;;;;;;0.35;0.35;;;12.60;66.20;;;;;;5049846;28;20183;-78
2021/04/18 09:02:10;;;;;;;0.35;0.35;;;12.70;65.80;;;;;;5053765;28;20490;-78
2021/04/18 09:04:54;;;;;;;1.10;0.57;;;12.90;66.10;;;;;;5067850;28;20121;-74
2021/04/18 09:07:34;;;;;;;0.47;0.40;;;13.00;65.20;;;;;;5019074;28;20044;-77
2021/04/18 09:10:04;;;;;;;0.40;0.40;;;12.90;65.20;;;;;;5035323;28;20033;-76
2021/04/18 09:12:30;;;;;;;0.60;0.50;;;12.90;65.50;;;;;;5035062;28;20486;-77
2021/04/18 09:14:57;;;;;;;0.55;0.40;;;12.90;65.60;;;;;;5035155;28;20283;-76
2021/04/18 09:17:32;;;;;;;0.65;0.40;;;13.00;65.70;;;;;;5051699;28;20123;-78
2021/04/18 09:20:02;;;;;;;0.35;0.35;;;13.10;65.30;;;;;;5051731;28;20045;-80
2021/04/18 09:22:31;;;;;;;1.00;0.50;;;13.20;65.10;;;;;;5051223;28;20041;-76
2021/04/18 09:25:14;;;;;;;0.88;0.52;;;13.50;64.70;;;;;;5051499;28;20119;-77
2021/04/18 09:27:45;;;;;;;0.55;0.40;;;13.70;64.30;;;;;;5051608;28;20037;-78
2021/04/18 09:30:15;;;;;;;1.35;0.57;;;13.80;64.10;;;;;;5031110;28;20044;-77
2021/04/18 09:32:47;;;;;;;0.60;0.50;;;13.90;63.90;;;;;;5052662;28;20044;-76
2021/04/18 09:35:16;;;;;;;0.43;0.43;;;14.00;63.60;;;;;;5051593;28;20033;-77
2021/04/18 09:37:59;;;;;;;0.55;0.50;;;14.20;63.50;;;;;;5051328;28;20048;-77
2021/04/18 09:40:29;;;;;;;1.10;0.73;;;14.20;63.00;;;;;;5050981;28;20037;-75
2021/04/18 09:42:56;;;;;;;0.77;0.60;;;14.30;62.90;;;;;;5035040;28;20471;-76
2021/04/18 09:45:25;;;;;;;1.02;0.50;;;14.40;62.90;;;;;;5051531;28;20483;-75
2021/04/18 09:47:56;;;;;;;0.88;0.47;;;14.40;62.90;;;;;;5014317;28;20044;-78
2021/04/18 09:50:30;;;;;;;1.42;0.70;;;14.40;62.70;;;;;;5014219;28;20120;-76
2021/04/18 09:53:18;;;;;;;0.40;0.40;;;14.40;62.50;;;;;;5015377;28;20487;-79
2021/04/18 09:56:00;;;;;;;0.73;0.40;;;14.50;62.30;;;;;;5015717;28;20041;-77
2021/04/18 09:58:39;;;;;;;1.75;0.50;;;14.60;62.30;;;;;;5030250;28;20539;-77
2021/04/18 10:01:25;;;;;;;0.50;0.50;;;14.60;62.20;;;;;;5013782;28;20045;-76
2021/04/18 10:03:52;;;;;;;2.35;0.60;;;14.50;62.30;;;;;;5029888;28;20037;-74
2021/04/18 10:06:23;;;;;;;1.35;0.80;;;14.70;62.40;;;;;;5019652;28;20033;-78
2021/04/18 10:09:04;;;;;;;0.90;0.80;;;14.70;62.30;;;;;;5015074;28;20531;-74
2021/04/18 10:11:30;;;;;;;1.00;0.85;;;14.70;62.10;;;;;;5013554;28;20135;-74
2021/04/18 10:13:59;;;;;;;1.40;1.08;;;14.70;62.20;;;;;;5030224;28;20077;-74
2021/04/18 10:16:40;;;;;;;2.20;1.05;;;14.80;62.00;;;;;;4997382;28;20124;-76
2021/04/18 10:19:14;;;;;;;1.05;0.90;;;14.80;61.90;;;;;;5011987;28;20056;-76
2021/04/18 10:21:41;;;;;;;1.58;1.00;;;14.90;62.10;;;;;;5052640;28;20045;-74
2021/04/18 10:24:39;;;;;;;1.20;1.10;;;15.00;61.80;;;;;;5051747;28;20092;-76
2021/04/18 10:27:07;;;;;;;1.80;1.20;;;15.00;61.50;;;;;;5050209;28;20068;-78
2021/04/18 10:29:35;;;;;;;1.70;1.08;;;14.90;61.70;;;;;;5034230;28;20090;-76
2021/04/18 10:32:01;;;;;;;2.80;1.20;;;15.00;61.70;;;;;;5050728;28;20530;-76
2021/04/18 10:34:27;;;;;;;1.40;1.10;;;15.10;61.70;;;;;;5033785;28;20056;-76
2021/04/18 10:36:55;;;;;;;2.10;1.30;;;15.20;61.50;;;;;;5050248;28;20398;-76
2021/04/18 10:39:22;;;;;;;2.00;1.20;;;15.20;61.20;;;;;;5051828;28;20136;-74
2021/04/18 10:41:49;;;;;;;2.08;1.08;;;15.10;61.20;;;;;;5050251;28;20037;-76
2021/04/18 10:44:16;;;;;;;1.60;1.17;;;15.20;61.00;;;;;;5051896;28;20033;-77
2021/04/18 10:46:50;;;;;;;1.52;1.10;;;15.30;61.00;;;;;;5050927;28;20037;-76
2021/04/18 10:49:16;;;;;;;2.10;1.30;;;15.20;60.80;;;;;;5053521;28;20059;-76
2021/04/18 10:51:42;;;;;;;2.58;0.90;;;15.30;60.80;;;;;;5043703;28;20051;-76
2021/04/18 10:54:09;;;;;;;2.35;1.00;;;15.40;61.20;;;;;;5060250;28;20041;-78
2021/04/18 10:56:36;;;;;;;1.10;0.73;;;15.50;60.40;;;;;;5059364;28;20044;-78
2021/04/18 10:59:03;;;;;;;2.10;1.00;;;15.70;60.10;;;;;;5051690;28;20064;-78
2021/04/18 11:01:30;;;;;;;1.30;1.00;;;15.80;59.80;;;;;;5033482;28;20037;-80
2021/04/18 11:03:56;;;;;;;1.38;0.85;;;16.10;59.30;;;;;;5051784;28;20112;-80
2021/04/18 11:06:24;;;;;;;1.25;0.80;;;16.20;58.80;;;;;;5049461;28;20036;-77
2021/04/18 11:08:50;;;;;;;1.42;0.80;;;16.20;58.60;;;;;;5012631;28;20069;-76
2021/04/18 11:11:17;;;;;;;1.65;0.93;;;16.40;58.40;;;;;;5012760;28;20041;-76
2021/04/18 11:13:44;;;;;;;2.25;0.80;;;16.50;58.20;;;;;;4996379;28;20037;-77
2021/04/18 11:16:10;;;;;;;1.70;0.90;;;16.60;58.20;;;;;;5028816;28;20042;-75
2021/04/18 11:18:38;;;;;;;1.33;0.90;;;16.60;58.00;;;;;;5012567;28;20526;-76
2021/04/18 11:21:04;;;;;;;1.98;1.00;;;16.60;57.80;;;;;;5029676;28;20049;-77
2021/04/18 11:23:31;;;;;;;1.25;0.85;;;16.70;57.80;;;;;;5029471;28;20049;-76
2021/04/18 11:25:57;;;;;;;1.23;0.73;;;16.70;57.70;;;;;;4996880;28;20120;-76
2021/04/18 11:28:23;;;;;;;1.13;0.90;;;16.70;57.70;;;;;;5029379;28;20053;-78
2021/04/18 11:30:52;;;;;;;1.15;0.80;;;16.90;57.50;;;;;;5015439;28;20045;-76
2021/04/18 11:33:19;;;;;;;1.00;0.82;;;17.10;57.20;;;;;;5032283;28;20053;-77
2021/04/18 11:35:45;;;;;;;1.02;0.57;;;17.40;56.90;;;;;;5015790;28;20045;-77
2021/04/18 11:38:11;;;;;;;0.93;0.90;;;17.70;56.50;;;;;;5032476;28;20599;-78
2021/04/18 11:40:38;;;;;;;1.40;0.90;;;17.80;56.20;;;;;;5033225;28;20120;-77
2021/04/18 11:43:04;;;;;;;0.80;0.80;;;17.90;55.90;;;;;;5053074;28;20098;-77
2021/04/18 11:45:31;;;;;;;1.13;0.93;;;18.00;55.80;;;;;;5053153;28;20033;-76
2021/04/18 11:47:57;;;;;;;1.60;0.82;;;17.90;56.00;;;;;;5049630;28;20120;-75
2021/04/18 11:50:25;;;;;;;1.13;0.70;;;18.00;56.00;;;;;;5053161;28;20033;-76
2021/04/18 11:52:51;;;;;;;1.73;1.08;;;18.10;55.90;;;;;;5053035;28;20030;-76
2021/04/18 11:55:20;;;;;;;2.67;1.00;;;18.10;55.90;;;;;;5054345;28;20128;-76
2021/04/18 11:57:46;;;;;;;2.00;1.00;;;18.00;55.70;;;;;;5052955;28;20033;-77
2021/04/18 12:00:13;;;;;;;3.08;1.48;;;18.00;55.80;;;;;;5036274;28;20041;-75
2021/04/18 12:02:40;;;;;;;1.42;1.10;;;17.90;55.70;;;;;;5054098;28;20025;-73
2021/04/18 12:05:07;;;;;;;1.48;1.00;;;17.90;55.80;;;;;;5054370;28;20028;-74
2021/04/18 12:07:34;;;;;;;1.65;1.20;;;17.80;55.90;;;;;;5054173;28;20036;-75
2021/04/18 12:10:00;;;;;;;1.38;0.85;;;17.70;55.80;;;;;;5056447;28;20049;-75
2021/04/18 12:12:26;;;;;;;1.70;1.10;;;17.60;56.10;;;;;;5054613;28;20072;-75
2021/04/18 12:14:53;;;;;;;2.03;0.88;;;17.60;56.10;;;;;;5053851;28;20033;-75
2021/04/18 12:17:20;;;;;;;0.98;0.80;;;17.60;56.00;;;;;;5056082;28;20048;-75
2021/04/18 12:19:46;;;;;;;1.73;1.00;;;17.60;56.10;;;;;;5056780;28;20056;-75
2021/04/18 12:22:12;;;;;;;1.13;0.80;;;17.70;55.90;;;;;;5055296;28;20136;-76
2021/04/18 12:24:39;;;;;;;4.30;1.30;;;17.40;55.70;;;;;;5053637;28;20044;-74
2021/04/18 12:27:05;;;;;;;2.38;1.13;;;17.50;56.10;;;;;;5052415;28;20045;-74
2021/04/18 12:29:32;;;;;;;1.48;0.90;;;17.40;56.10;;;;;;5049522;28;20102;-75
2021/04/18 12:31:59;;;;;;;1.38;0.90;;;17.50;56.10;;;;;;5054341;28;20132;-74
2021/04/18 12:34:25;;;;;;;1.88;1.20;;;17.60;55.70;;;;;;5038059;28;20041;-75
2021/04/18 12:36:52;;;;;;;2.30;1.10;;;17.60;55.40;;;;;;5056880;28;20041;-75
2021/04/18 12:39:18;;;;;;;1.60;0.95;;;17.50;55.50;;;;;;5055939;28;20049;-75
2021/04/18 12:41:44;;;;;;;2.05;1.10;;;17.40;55.80;;;;;;5055512;28;20029;-76
2021/04/18 12:44:13;;;;;;;0.98;0.80;;;17.40;55.70;;;;;;5055631;28;20025;-74
2021/04/18 12:46:40;;;;;;;1.38;0.90;;;17.60;55.90;;;;;;5038814;28;20040;-75
2021/04/18 12:49:07;;;;;;;1.40;1.10;;;17.70;55.50;;;;;;5038424;28;20484;-74
2021/04/18 12:51:33;;;;;;;1.90;1.10;;;17.80;55.10;;;;;;5059223;28;20067;-76
2021/04/18 12:54:02;;;;;;;0.95;0.85;;;17.90;55.00;;;;;;5057710;28;20040;-75
2021/04/18 12:56:31;;;;;;;1.00;0.80;;;18.00;54.90;;;;;;5038927;28;20076;-77
2021/04/18 12:58:57;;;;;;;1.35;0.95;;;18.30;54.50;;;;;;5043584;28;20136;-74